createdAt,value
2018-11-04T00:00:22.492Z,25.57
2018-11-04T00:02:51.725Z,21.90
2018-11-04T00:05:21.139Z,20.90
2018-11-04T00:07:51.106Z,21.90
2018-11-04T00:10:20.158Z,21.37
2018-11-04T00:12:49.234Z,21.70
2018-11-04T00:15:18.687Z,21.50
2018-11-04T00:17:48.794Z,21.07
2018-11-04T00:20:18.336Z,20.83
2018-11-04T00:22:49.014Z,22.07
2018-11-04T00:25:18.198Z,21.43
2018-11-04T00:27:48.113Z,22.57
2018-11-04T00:30:17.619Z,21.63
2018-11-04T00:32:46.721Z,23.77
2018-11-04T00:35:15.787Z,21.83
2018-11-04T00:37:44.969Z,22.73
2018-11-04T00:40:14.986Z,22.00
2018-11-04T00:42:45.004Z,21.53
2018-11-04T00:45:16.022Z,21.50
2018-11-04T00:47:45.101Z,22.90
2018-11-04T00:50:15.165Z,23.70
2018-11-04T00:52:45.504Z,22.07
2018-11-04T00:55:15.752Z,23.17
2018-11-04T00:57:45.150Z,23.63
2018-11-04T01:00:17.472Z,23.93
2018-11-04T01:02:47.809Z,22.87
2018-11-04T01:05:18.903Z,23.67
2018-11-04T01:07:48.709Z,23.37
2018-11-04T01:10:18.513Z,24.10
2018-11-04T01:12:47.600Z,22.20
2018-11-04T01:15:17.450Z,22.73
2018-11-04T01:17:46.593Z,22.77
2018-11-04T01:20:21.482Z,22.53
2018-11-04T01:22:50.600Z,22.90
2018-11-04T01:25:19.690Z,23.50
2018-11-04T01:27:48.794Z,22.00
2018-11-04T01:30:18.151Z,22.13
2018-11-04T01:32:47.194Z,22.30
2018-11-04T01:35:19.629Z,23.63
2018-11-04T01:37:49.926Z,22.10
2018-11-04T01:40:19.924Z,23.67
2018-11-04T01:42:49.313Z,23.20
2018-11-04T01:45:18.474Z,22.57
2018-11-04T01:47:47.652Z,21.77
2018-11-04T01:50:19.265Z,23.10
2018-11-04T01:52:48.451Z,22.17
2018-11-04T01:55:17.528Z,20.73
2018-11-04T01:57:46.625Z,22.13
2018-11-04T02:00:17.015Z,21.63
2018-11-04T02:02:47.390Z,20.63
2018-11-04T02:05:19.277Z,20.50
2018-11-04T02:07:48.319Z,22.20
2018-11-04T02:10:18.522Z,23.17
2018-11-04T02:12:48.882Z,21.03
2018-11-04T02:15:19.241Z,21.60
2018-11-04T02:17:48.627Z,20.00
2018-11-04T02:20:17.641Z,20.97
2018-11-04T02:22:47.640Z,21.40
2018-11-04T02:25:19.180Z,21.60
2018-11-04T02:27:49.150Z,20.73
2018-11-04T02:30:18.204Z,22.07
2018-11-04T02:32:47.697Z,20.23
2018-11-04T02:35:17.011Z,22.45
2018-11-04T02:37:46.911Z,22.40
2018-11-04T02:40:17.162Z,23.47
2018-11-04T02:42:46.189Z,23.53
2018-11-04T02:45:15.218Z,24.67
2018-11-04T02:47:44.141Z,23.33
2018-11-04T02:50:15.041Z,23.57
2018-11-04T02:52:44.134Z,24.70
2018-11-04T02:55:13.281Z,23.93
2018-11-04T02:57:55.683Z,26.53
2018-11-04T03:00:24.739Z,25.27
2018-11-04T03:02:53.729Z,25.40
2018-11-04T03:05:23.730Z,25.87
2018-11-04T03:07:53.764Z,25.10
2018-11-04T03:10:22.794Z,31.80
2018-11-04T03:12:52.270Z,28.00
2018-11-04T03:15:21.287Z,25.13
2018-11-04T03:17:50.803Z,23.23
2018-11-04T03:20:19.815Z,23.33
2018-11-04T03:22:49.477Z,29.13
2018-11-04T03:25:18.625Z,24.67
2018-11-04T03:27:48.202Z,24.90
2018-11-04T03:30:17.175Z,25.30
2018-11-04T03:32:47.176Z,24.03
2018-11-04T03:35:16.337Z,26.97
2018-11-04T03:37:46.038Z,25.70
2018-11-04T03:40:15.061Z,26.20
2018-11-04T03:42:45.713Z,27.13
2018-11-04T03:45:14.701Z,27.20
2018-11-04T03:47:45.096Z,25.37
2018-11-04T03:50:14.085Z,23.97
2018-11-04T03:52:43.439Z,25.27
2018-11-04T03:55:12.541Z,23.93
2018-11-04T03:57:41.699Z,24.27
2018-11-04T04:00:12.066Z,24.20
2018-11-04T04:02:42.903Z,25.40
2018-11-04T04:05:12.359Z,25.13
2018-11-04T04:07:41.469Z,25.80
2018-11-04T04:10:10.739Z,24.10
2018-11-04T04:12:40.325Z,24.93
2018-11-04T04:15:10.538Z,25.13
2018-11-04T04:17:39.795Z,26.33
2018-11-04T04:20:09.890Z,25.83
2018-11-04T04:22:39.013Z,25.87
2018-11-04T04:25:09.501Z,25.57
2018-11-04T04:27:39.011Z,26.50
2018-11-04T04:30:09.927Z,25.87
2018-11-04T04:32:38.966Z,25.47
2018-11-04T04:35:08.884Z,25.30
2018-11-04T04:37:37.950Z,25.30
2018-11-04T04:40:07.181Z,24.37
2018-11-04T04:42:38.002Z,25.30
2018-11-04T04:45:07.377Z,26.57
2018-11-04T04:47:36.640Z,26.07
2018-11-04T04:50:06.007Z,26.30
2018-11-04T04:52:36.565Z,27.03
2018-11-04T04:55:05.641Z,25.73
2018-11-04T04:57:35.653Z,27.10
2018-11-04T05:00:04.908Z,27.77
2018-11-04T05:02:34.233Z,26.60
2018-11-04T05:05:03.366Z,26.93
2018-11-04T05:07:32.952Z,26.03
2018-11-04T05:10:02.053Z,26.30
2018-11-04T05:12:31.112Z,26.63
2018-11-04T05:15:00.384Z,25.20
2018-11-04T05:17:29.742Z,26.73
2018-11-04T05:19:59.706Z,25.70
2018-11-04T05:22:29.746Z,26.20
2018-11-04T05:24:58.934Z,26.43
2018-11-04T05:27:29.058Z,26.40
2018-11-04T05:29:58.417Z,25.60
2018-11-04T05:32:27.954Z,25.47
2018-11-04T05:34:58.304Z,27.20
2018-11-04T05:37:27.428Z,27.73
2018-11-04T05:39:57.535Z,25.93
2018-11-04T05:42:27.979Z,27.40
2018-11-04T05:44:57.369Z,25.63
2018-11-04T05:47:26.650Z,26.80
2018-11-04T05:49:55.696Z,26.70
2018-11-04T05:52:24.753Z,26.80
2018-11-04T05:54:53.807Z,27.23
2018-11-04T05:57:23.484Z,26.93
2018-11-04T05:59:52.767Z,26.17
2018-11-04T06:02:21.817Z,26.27
2018-11-04T06:04:50.810Z,26.90
2018-11-04T06:07:20.573Z,27.47
2018-11-04T06:09:49.760Z,25.63
2018-11-04T06:12:19.258Z,25.57
2018-11-04T06:14:48.312Z,27.63
2018-11-04T06:17:18.193Z,26.30
2018-11-04T06:19:47.524Z,28.00
2018-11-04T06:22:17.082Z,27.40
2018-11-04T06:24:47.174Z,26.97
2018-11-04T06:27:16.455Z,27.57
2018-11-04T06:29:45.795Z,25.93
2018-11-04T06:32:16.576Z,27.20
2018-11-04T06:34:45.872Z,27.00
2018-11-04T06:37:15.785Z,27.10
2018-11-04T06:39:45.017Z,26.57
2018-11-04T06:42:15.368Z,27.17
2018-11-04T06:44:44.820Z,26.43
2018-11-04T06:47:15.660Z,26.27
2018-11-04T06:49:44.783Z,26.40
2018-11-04T06:52:13.930Z,27.98
2018-11-04T06:54:43.353Z,34.05
2018-11-04T06:57:13.019Z,28.60
2018-11-04T06:59:43.317Z,28.20
2018-11-04T07:02:12.494Z,27.57
2018-11-04T07:04:45.760Z,27.87
2018-11-04T07:07:14.964Z,27.57
2018-11-04T07:09:44.302Z,27.20
2018-11-04T07:12:13.328Z,27.10
2018-11-04T07:14:44.127Z,28.03
2018-11-04T07:17:13.535Z,27.43
2018-11-04T07:19:43.408Z,28.07
2018-11-04T07:22:13.543Z,28.87
2018-11-04T07:24:43.419Z,30.20
2018-11-04T07:27:12.680Z,27.13
2018-11-04T07:29:41.872Z,27.30
2018-11-04T07:32:11.200Z,29.27
2018-11-04T07:34:40.763Z,30.23
2018-11-04T07:37:10.126Z,29.37
2018-11-04T07:39:39.283Z,29.77
2018-11-04T07:42:09.356Z,31.83
2018-11-04T07:44:44.543Z,31.00
2018-11-04T07:47:13.840Z,28.87
2018-11-04T07:49:43.221Z,30.20
2018-11-04T07:52:12.545Z,29.97
2018-11-04T07:54:43.327Z,29.80
2018-11-04T07:57:12.733Z,29.30
2018-11-04T07:59:42.173Z,32.70
2018-11-04T08:02:11.478Z,32.20
2018-11-04T08:04:41.329Z,31.63
2018-11-04T08:07:10.868Z,30.63
2018-11-04T08:09:40.336Z,30.00
2018-11-04T08:12:09.791Z,30.73
2018-11-04T08:14:38.820Z,29.10
2018-11-04T08:17:08.419Z,29.40
2018-11-04T08:19:37.804Z,30.43
2018-11-04T08:22:07.185Z,29.70
2018-11-04T08:24:36.561Z,28.93
2018-11-04T08:27:09.083Z,30.30
2018-11-04T08:29:38.558Z,29.90
2018-11-04T08:32:07.764Z,28.43
2018-11-04T08:34:40.326Z,29.97
2018-11-04T08:37:11.800Z,28.00
2018-11-04T08:39:42.123Z,28.87
2018-11-04T08:42:20.343Z,29.27
2018-11-04T08:44:49.600Z,29.17
2018-11-04T08:47:19.726Z,28.43
2018-11-04T08:49:49.812Z,28.50
2018-11-04T08:52:19.032Z,29.40
2018-11-04T08:54:48.981Z,30.00
2018-11-04T08:57:18.475Z,30.73
2018-11-04T08:59:47.799Z,30.13
2018-11-04T09:02:17.838Z,30.33
2018-11-04T09:04:47.879Z,29.83
2018-11-04T09:07:17.634Z,30.10
2018-11-04T09:09:46.778Z,31.13
2018-11-04T09:12:15.838Z,29.87
2018-11-04T09:14:46.607Z,29.20
2018-11-04T09:17:15.787Z,31.73
2018-11-04T09:19:44.916Z,29.73
2018-11-04T09:22:14.157Z,30.67
2018-11-04T09:24:43.285Z,29.77
2018-11-04T09:27:12.307Z,30.90
2018-11-04T09:29:43.198Z,29.30
2018-11-04T09:32:14.383Z,30.60
2018-11-04T09:34:43.929Z,31.57
2018-11-04T09:37:13.410Z,31.50
2018-11-04T09:39:42.863Z,31.20
2018-11-04T09:42:12.026Z,31.20
2018-11-04T09:44:41.102Z,30.50
2018-11-04T09:47:12.076Z,31.47
2018-11-04T09:49:41.890Z,31.83
2018-11-04T09:52:10.981Z,31.63
2018-11-04T09:54:40.856Z,31.73
2018-11-04T09:57:10.706Z,29.97
2018-11-04T09:59:40.884Z,29.57
2018-11-04T10:02:10.445Z,29.77
2018-11-04T10:04:39.619Z,31.07
2018-11-04T10:07:08.819Z,30.93
2018-11-04T10:09:39.016Z,30.97
2018-11-04T10:12:09.288Z,29.00
2018-11-04T10:14:38.434Z,29.73
2018-11-04T10:17:08.053Z,29.80
2018-11-04T10:19:39.068Z,29.37
2018-11-04T10:22:08.022Z,31.13
2018-11-04T10:24:37.176Z,29.20
2018-11-04T10:27:07.199Z,30.00
2018-11-04T10:29:36.653Z,28.57
2018-11-04T10:32:05.822Z,27.70
2018-11-04T10:34:36.229Z,29.97
2018-11-04T10:37:07.960Z,28.83
2018-11-04T10:39:37.505Z,29.43
2018-11-04T10:42:06.728Z,28.60
2018-11-04T10:44:36.117Z,28.27
2018-11-04T10:47:06.127Z,27.97
2018-11-04T10:49:36.375Z,28.93
2018-11-04T10:52:05.692Z,28.40
2018-11-04T10:54:34.835Z,29.10
2018-11-04T10:57:04.463Z,28.73
2018-11-04T10:59:33.612Z,27.60
2018-11-04T11:02:02.709Z,27.33
2018-11-04T11:04:31.885Z,26.17
2018-11-04T11:07:01.582Z,27.67
2018-11-04T11:09:30.770Z,28.17
2018-11-04T11:11:59.967Z,27.40
2018-11-04T11:14:29.260Z,28.13
2018-11-04T11:16:58.463Z,27.13
2018-11-04T11:19:27.969Z,27.97
2018-11-04T11:21:57.480Z,30.93
2018-11-04T11:24:26.857Z,29.20
2018-11-04T11:26:55.918Z,28.60
2018-11-04T11:29:25.199Z,27.07
2018-11-04T11:31:54.564Z,27.33
2018-11-04T11:34:24.854Z,28.40
2018-11-04T11:36:56.003Z,26.83
2018-11-04T11:39:25.161Z,28.17
2018-11-04T11:41:54.389Z,28.10
2018-11-04T11:44:24.676Z,27.27
2018-11-04T11:46:54.031Z,27.27
2018-11-04T11:49:24.396Z,28.47
2018-11-04T11:51:53.794Z,27.77
2018-11-04T11:54:23.983Z,28.03
2018-11-04T11:56:53.637Z,26.93
2018-11-04T11:59:22.764Z,26.70
2018-11-04T12:01:52.384Z,28.37
2018-11-04T12:04:21.788Z,27.47
2018-11-04T12:06:51.228Z,27.97
2018-11-04T12:09:20.644Z,28.00
2018-11-04T12:11:49.907Z,28.37
2018-11-04T12:14:19.030Z,29.03
2018-11-04T12:16:50.017Z,27.73
2018-11-04T12:19:20.277Z,28.47
2018-11-04T12:21:49.971Z,29.00
2018-11-04T12:24:19.466Z,26.70
2018-11-04T12:26:49.619Z,27.40
2018-11-04T12:29:19.307Z,28.67
2018-11-04T12:31:48.504Z,28.23
2018-11-04T12:34:17.889Z,26.77
2018-11-04T12:36:46.983Z,26.87
2018-11-04T12:39:16.332Z,28.03
2018-11-04T12:41:46.490Z,28.83
2018-11-04T12:44:15.823Z,27.70
2018-11-04T12:46:45.235Z,26.27
2018-11-04T12:49:15.535Z,25.00
2018-11-04T12:51:45.596Z,25.73
2018-11-04T12:54:17.347Z,27.67
2018-11-04T12:56:47.920Z,26.20
2018-11-04T12:59:17.433Z,26.20
2018-11-04T13:01:46.894Z,25.47
2018-11-04T13:04:16.798Z,24.30
2018-11-04T13:06:46.176Z,26.33
2018-11-04T13:09:16.322Z,26.53
2018-11-04T13:11:45.938Z,27.23
2018-11-04T13:14:15.260Z,25.10
2018-11-04T13:16:44.661Z,23.70
2018-11-04T13:19:14.881Z,24.27
2018-11-04T13:21:44.418Z,23.53
2018-11-04T13:24:14.472Z,24.23
2018-11-04T13:26:43.917Z,25.33
2018-11-04T13:29:13.346Z,25.03
2018-11-04T13:31:42.833Z,24.10
2018-11-04T13:34:13.481Z,25.63
2018-11-04T13:36:42.725Z,26.67
2018-11-04T13:39:12.289Z,25.53
2018-11-04T13:41:42.686Z,26.17
2018-11-04T13:44:12.511Z,26.43
2018-11-04T13:46:44.478Z,27.83
2018-11-04T13:49:13.859Z,28.20
2018-11-04T13:51:45.120Z,26.93
2018-11-04T13:54:14.492Z,27.67
2018-11-04T13:56:43.860Z,26.93
2018-11-04T13:59:13.357Z,28.07
2018-11-04T14:01:42.641Z,27.47
2018-11-04T14:04:12.926Z,27.67
2018-11-04T14:06:42.241Z,26.73
2018-11-04T14:09:11.732Z,28.00
2018-11-04T14:11:41.733Z,27.13
2018-11-04T14:14:10.962Z,26.30
2018-11-04T14:16:40.149Z,27.23
2018-11-04T14:19:10.541Z,28.13
2018-11-04T14:21:39.830Z,26.43
2018-11-04T14:24:09.210Z,26.33
2018-11-04T14:26:38.621Z,25.40
2018-11-04T14:29:08.236Z,26.47
2018-11-04T14:31:37.477Z,26.07
2018-11-04T14:34:06.801Z,25.50
2018-11-04T14:36:36.072Z,25.90
2018-11-04T14:39:09.888Z,25.23
2018-11-04T14:41:39.311Z,25.87
2018-11-04T14:44:08.659Z,25.33
2018-11-04T14:46:38.807Z,25.63
2018-11-04T14:49:08.665Z,25.63
2018-11-04T14:51:37.955Z,24.30
2018-11-04T14:54:07.461Z,23.90
2018-11-04T14:56:36.849Z,24.97
2018-11-04T14:59:06.806Z,25.33
2018-11-04T15:01:36.923Z,25.60
2018-11-04T15:04:06.433Z,26.40
2018-11-04T15:06:35.836Z,25.93
2018-11-04T15:09:07.408Z,24.87
2018-11-04T15:11:36.822Z,25.77
2018-11-04T15:14:06.228Z,24.03
2018-11-04T15:16:36.155Z,23.97
2018-11-04T15:19:07.936Z,24.83
2018-11-04T15:21:38.188Z,24.27
2018-11-04T15:24:07.669Z,23.37
2018-11-04T15:26:38.406Z,24.47
2018-11-04T15:29:07.894Z,24.57
2018-11-04T15:31:37.330Z,24.13
2018-11-04T15:34:07.526Z,24.77
2018-11-04T15:36:36.907Z,24.57
2018-11-04T15:39:11.918Z,25.43
2018-11-04T15:41:41.245Z,23.30
2018-11-04T15:44:11.126Z,23.83
2018-11-04T15:46:40.665Z,24.20
2018-11-04T15:49:11.749Z,24.13
2018-11-04T15:51:41.298Z,23.53
2018-11-04T15:54:10.637Z,23.77
2018-11-04T15:56:40.894Z,25.23
2018-11-04T15:59:10.625Z,25.97
2018-11-04T16:01:40.071Z,24.77
2018-11-04T16:04:10.089Z,25.10
2018-11-04T16:06:47.369Z,25.73
2018-11-04T16:09:17.676Z,25.47
2018-11-04T16:11:47.721Z,24.63
2018-11-04T16:14:18.119Z,24.07
2018-11-04T16:16:47.698Z,23.90
2018-11-04T16:19:17.030Z,24.73
2018-11-04T16:21:46.594Z,24.53
2018-11-04T16:24:17.729Z,23.63
2018-11-04T16:26:47.029Z,24.53
2018-11-04T16:29:17.477Z,23.60
2018-11-04T16:31:47.062Z,24.50
2018-11-04T16:34:16.335Z,23.80
2018-11-04T16:36:46.449Z,23.67
2018-11-04T16:39:16.819Z,24.60
2018-11-04T16:41:46.323Z,25.07
2018-11-04T16:44:16.280Z,24.27
2018-11-04T16:46:45.524Z,25.23
2018-11-04T16:49:16.638Z,25.90
2018-11-04T16:51:46.940Z,26.37
2018-11-04T16:54:16.405Z,29.73
2018-11-04T16:56:47.304Z,28.63
2018-11-04T16:59:17.099Z,28.63
2018-11-04T17:01:46.282Z,28.40
2018-11-04T17:04:15.935Z,27.23
2018-11-04T17:06:45.214Z,28.17
2018-11-04T17:09:14.465Z,27.53
2018-11-04T17:11:45.315Z,28.50
2018-11-04T17:14:14.401Z,28.57
2018-11-04T17:16:45.634Z,29.17
2018-11-04T17:19:14.936Z,28.43
2018-11-04T17:21:44.315Z,27.17
2018-11-04T17:24:13.678Z,26.73
2018-11-04T17:26:43.182Z,28.67
2018-11-04T17:29:14.128Z,28.10
2018-11-04T17:31:43.620Z,26.00
2018-11-04T17:34:12.895Z,26.03
2018-11-04T17:36:42.340Z,24.60
2018-11-04T17:39:13.498Z,24.90
2018-11-04T17:41:43.299Z,23.33
2018-11-04T17:44:13.488Z,24.47
2018-11-04T17:46:43.616Z,22.83
2018-11-04T17:49:12.976Z,22.27
2018-11-04T17:51:42.310Z,22.83
2018-11-04T17:54:11.977Z,23.53
2018-11-04T17:56:41.058Z,23.83
2018-11-04T17:59:12.233Z,24.73
2018-11-04T18:01:42.631Z,23.03
2018-11-04T18:04:13.369Z,23.00
2018-11-04T18:06:42.753Z,22.90
2018-11-04T18:09:12.666Z,22.73
2018-11-04T18:11:42.821Z,22.70
2018-11-04T18:14:12.250Z,24.63
2018-11-04T18:16:41.687Z,23.40
2018-11-04T18:19:11.179Z,23.70
2018-11-04T18:21:40.969Z,21.33
2018-11-04T18:24:11.331Z,22.50
2018-11-04T18:26:41.840Z,22.33
2018-11-04T18:29:11.113Z,22.00
2018-11-04T18:31:40.928Z,20.93
2018-11-04T18:34:10.184Z,21.63
2018-11-04T18:36:39.918Z,21.10
2018-11-04T18:39:09.779Z,21.03
2018-11-04T18:41:41.713Z,20.00
2018-11-04T18:44:12.127Z,20.17
2018-11-04T18:46:41.812Z,21.47
2018-11-04T18:49:11.135Z,22.00
2018-11-04T18:51:43.420Z,21.47
2018-11-04T18:54:16.509Z,20.27
2018-11-04T18:56:53.197Z,20.60
2018-11-04T18:59:22.572Z,20.83
2018-11-04T19:01:51.991Z,20.53
2018-11-04T19:04:21.663Z,20.97
2018-11-04T19:06:52.163Z,20.90
2018-11-04T19:09:21.716Z,20.47
2018-11-04T19:11:52.504Z,20.93
2018-11-04T19:14:22.515Z,20.03
2018-11-04T19:16:51.821Z,20.80
2018-11-04T19:19:24.771Z,20.87
2018-11-04T19:21:54.574Z,20.40
2018-11-04T19:24:23.957Z,20.77
2018-11-04T19:26:53.655Z,21.20
2018-11-04T19:29:23.114Z,21.63
2018-11-04T19:31:52.432Z,20.93
2018-11-04T19:34:22.154Z,21.73
2018-11-04T19:36:51.481Z,22.10
2018-11-04T19:39:21.087Z,20.63
2018-11-04T19:41:50.723Z,20.80
2018-11-04T19:44:21.754Z,20.73
2018-11-04T19:46:51.083Z,21.03
2018-11-04T19:49:20.458Z,22.17
2018-11-04T19:51:50.049Z,21.03
2018-11-04T19:54:19.971Z,20.43
2018-11-04T19:56:49.383Z,20.73
2018-11-04T19:59:19.233Z,20.33
2018-11-04T20:01:48.843Z,20.20
2018-11-04T20:04:19.310Z,20.90
2018-11-04T20:06:50.485Z,21.30
2018-11-04T20:09:19.647Z,21.00
2018-11-04T20:11:48.977Z,19.23
2018-11-04T20:14:20.150Z,18.93
2018-11-04T20:16:50.844Z,19.57
2018-11-04T20:19:25.572Z,19.67
2018-11-04T20:21:55.433Z,20.20
2018-11-04T20:24:34.248Z,20.07
2018-11-04T20:27:03.825Z,19.73
2018-11-04T20:29:32.983Z,20.33
2018-11-04T20:32:10.158Z,18.77
2018-11-04T20:34:39.763Z,19.17
2018-11-04T20:37:09.188Z,19.27
2018-11-04T20:39:45.379Z,19.30
2018-11-04T20:42:14.804Z,18.20
2018-11-04T20:44:45.623Z,18.43
2018-11-04T20:47:15.598Z,20.07
2018-11-04T20:49:51.537Z,19.43
2018-11-04T20:52:20.739Z,18.83
2018-11-04T20:54:50.082Z,18.87
2018-11-04T20:57:24.944Z,18.10
2018-11-04T20:59:54.462Z,17.90
2018-11-04T21:02:23.807Z,17.93
2018-11-04T21:04:53.483Z,19.10
2018-11-04T21:07:23.045Z,19.90
2018-11-04T21:09:52.749Z,19.33
2018-11-04T21:12:22.036Z,18.83
2018-11-04T21:14:51.527Z,19.20
2018-11-04T21:17:21.365Z,19.33
2018-11-04T21:19:51.458Z,19.57
2018-11-04T21:22:21.362Z,20.07
2018-11-04T21:24:50.607Z,19.93
2018-11-04T21:27:19.978Z,19.60
2018-11-04T21:29:49.788Z,18.53
2018-11-04T21:32:20.013Z,19.57
2018-11-04T21:34:49.465Z,19.50
2018-11-04T21:37:18.921Z,19.63
2018-11-04T21:39:48.917Z,19.67
2018-11-04T21:42:18.372Z,18.93
2018-11-04T21:45:02.324Z,19.63
2018-11-04T21:47:31.746Z,18.40
2018-11-04T21:50:00.929Z,18.40
2018-11-04T21:52:30.592Z,18.70
2018-11-04T21:55:00.854Z,19.23
2018-11-04T21:57:31.010Z,18.50
2018-11-04T22:00:00.474Z,18.80
2018-11-04T22:02:31.129Z,19.00
2018-11-04T22:05:00.484Z,19.03
2018-11-04T22:07:29.850Z,19.70
2018-11-04T22:09:59.148Z,18.50
2018-11-04T22:12:30.059Z,18.73
2018-11-04T22:14:59.582Z,18.70
2018-11-04T22:17:29.022Z,18.10
2018-11-04T22:19:58.516Z,18.30
2018-11-04T22:22:27.922Z,18.67
2018-11-04T22:24:57.248Z,17.77
2018-11-04T22:27:26.979Z,18.97
2018-11-04T22:29:56.014Z,18.30
2018-11-04T22:32:25.430Z,17.67
2018-11-04T22:34:55.765Z,17.73
2018-11-04T22:37:25.568Z,18.63
2018-11-04T22:39:55.102Z,17.80
2018-11-04T22:42:24.358Z,17.60
2018-11-04T22:44:55.147Z,17.87
2018-11-04T22:47:24.473Z,17.83
2018-11-04T22:49:53.776Z,17.63
2018-11-04T22:52:23.014Z,18.07
2018-11-04T22:54:53.020Z,17.23
2018-11-04T22:57:22.413Z,16.83
2018-11-04T22:59:53.203Z,18.00
2018-11-04T23:02:22.981Z,17.37
2018-11-04T23:04:57.431Z,16.20
2018-11-04T23:07:26.715Z,16.90
2018-11-04T23:09:56.265Z,16.37
2018-11-04T23:12:25.641Z,17.70
2018-11-04T23:14:54.982Z,17.67
2018-11-04T23:17:24.104Z,16.93
2018-11-04T23:19:54.748Z,17.73
2018-11-04T23:22:24.949Z,16.17
2018-11-04T23:24:55.467Z,16.07
2018-11-04T23:27:26.456Z,17.07
2018-11-04T23:29:55.518Z,16.50
2018-11-04T23:32:26.757Z,17.50
2018-11-04T23:34:57.415Z,16.60
2018-11-04T23:37:26.747Z,16.17
2018-11-04T23:39:55.891Z,16.97
2018-11-04T23:42:25.027Z,16.27
2018-11-04T23:44:55.437Z,15.77
2018-11-04T23:47:25.870Z,15.80
2018-11-04T23:49:55.238Z,15.93
